Terminal Aerodrome Forecast
Issued by NWS

Home | Current Version | Previous Version | Text Only | Print | Product List | Glossary On
Versions: 1 2 3 4 5 6 7 8 9 10 11 12 13 14 15 16 17
722
FTUS46 KSEW 131738
TAFBFI
TAF
KBFI 131738Z 1318/1418 16008KT P6SM SCT030 OVC120
     FM132000 16009KT P6SM -RA SCT030 OVC040
     FM132200 16010KT 5SM -RA BR SCT020 OVC030
     FM140300 17011G18KT P6SM -RA SCT015 OVC020
     FM140900 17009KT 6SM -RA BR SCT010 OVC015=

USA.gov is the U.S. government's official web portal to all federal, state and local government web resources and services.